sensor_id;sensor_type;location;lat;lon;timestamp;pressure;altitude;pressure_sealevel;temperature;humidity
18022;BME280;9136;48.822;7.966;2023-01-29T00:01:12;101502.00;;;0.38;100.00
18022;BME280;9136;48.822;7.966;2023-01-29T00:04:00;101485.50;;;0.33;100.00
18022;BME280;9136;48.822;7.966;2023-01-29T00:06:48;101515.16;;;0.46;100.00
18022;BME280;9136;48.822;7.966;2023-01-29T00:09:36;101520.16;;;0.40;100.00
18022;BME280;9136;48.822;7.966;2023-01-29T00:12:26;101498.34;;;0.30;100.00
18022;BME280;9136;48.822;7.966;2023-01-29T00:15:14;101490.78;;;0.38;100.00
18022;BME280;9136;48.822;7.966;2023-01-29T00:18:03;101500.06;;;0.30;100.00
18022;BME280;9136;48.822;7.966;2023-01-29T00:20:50;101491.34;;;0.27;100.00
18022;BME280;9136;48.822;7.966;2023-01-29T00:23:38;101507.28;;;0.41;100.00
18022;BME280;9136;48.822;7.966;2023-01-29T00:26:26;101515.94;;;0.43;100.00
18022;BME280;9136;48.822;7.966;2023-01-29T00:29:16;101499.97;;;0.28;100.00
18022;BME280;9136;48.822;7.966;2023-01-29T00:32:04;101512.19;;;0.32;100.00
18022;BME280;9136;48.822;7.966;2023-01-29T00:34:52;101520.06;;;0.37;100.00
18022;BME280;9136;48.822;7.966;2023-01-29T00:37:40;101513.06;;;0.33;100.00
18022;BME280;9136;48.822;7.966;2023-01-29T00:40:28;101512.25;;;0.35;100.00
18022;BME280;9136;48.822;7.966;2023-01-29T00:43:35;101471.25;;;0.17;100.00
18022;BME280;9136;48.822;7.966;2023-01-29T00:46:42;101483.31;;;0.18;100.00
18022;BME280;9136;48.822;7.966;2023-01-29T00:49:30;101483.41;;;0.20;100.00
18022;BME280;9136;48.822;7.966;2023-01-29T00:52:18;101504.50;;;0.35;100.00
18022;BME280;9136;48.822;7.966;2023-01-29T00:55:11;101486.34;;;0.32;100.00
18022;BME280;9136;48.822;7.966;2023-01-29T00:57:59;101491.53;;;0.34;100.00
18022;BME280;9136;48.822;7.966;2023-01-29T01:00:47;101505.31;;;0.33;100.00
18022;BME280;9136;48.822;7.966;2023-01-29T01:03:37;101476.38;;;0.16;100.00
18022;BME280;9136;48.822;7.966;2023-01-29T01:06:27;101505.16;;;0.28;100.00
18022;BME280;9136;48.822;7.966;2023-01-29T01:09:15;101494.53;;;0.19;100.00
18022;BME280;9136;48.822;7.966;2023-01-29T01:12:20;101489.00;;;0.07;100.00
18022;BME280;9136;48.822;7.966;2023-01-29T01:15:09;101509.88;;;0.13;100.00
18022;BME280;9136;48.822;7.966;2023-01-29T01:17:58;101503.69;;;0.08;100.00
18022;BME280;9136;48.822;7.966;2023-01-29T01:20:48;101488.84;;;0.01;100.00
18022;BME280;9136;48.822;7.966;2023-01-29T01:23:37;101501.97;;;0.08;100.00
18022;BME280;9136;48.822;7.966;2023-01-29T01:26:25;101505.50;;;0.10;100.00
18022;BME280;9136;48.822;7.966;2023-01-29T01:29:13;101507.34;;;0.14;100.00
18022;BME280;9136;48.822;7.966;2023-01-29T01:32:01;101507.06;;;0.05;100.00
18022;BME280;9136;48.822;7.966;2023-01-29T01:34:50;101513.09;;;0.06;100.00
18022;BME280;9136;48.822;7.966;2023-01-29T01:37:43;101505.78;;;-0.09;100.00
18022;BME280;9136;48.822;7.966;2023-01-29T01:40:31;101526.53;;;-0.06;100.00
18022;BME280;9136;48.822;7.966;2023-01-29T01:43:19;101523.22;;;-0.01;100.00
18022;BME280;9136;48.822;7.966;2023-01-29T01:46:07;101526.00;;;0.06;100.00
18022;BME280;9136;48.822;7.966;2023-01-29T01:48:59;101530.97;;;-0.01;100.00
18022;BME280;9136;48.822;7.966;2023-01-29T01:51:50;101523.31;;;0.01;100.00
18022;BME280;9136;48.822;7.966;2023-01-29T01:54:40;101518.19;;;0.03;100.00
18022;BME280;9136;48.822;7.966;2023-01-29T01:57:30;101511.22;;;0.00;100.00
18022;BME280;9136;48.822;7.966;2023-01-29T02:00:20;101514.59;;;-0.01;100.00
18022;BME280;9136;48.822;7.966;2023-01-29T02:03:09;101513.72;;;-0.02;100.00
18022;BME280;9136;48.822;7.966;2023-01-29T02:06:15;101505.56;;;-0.15;100.00
18022;BME280;9136;48.822;7.966;2023-01-29T02:09:22;101513.44;;;-0.11;100.00
18022;BME280;9136;48.822;7.966;2023-01-29T02:12:21;101488.06;;;-0.24;100.00
18022;BME280;9136;48.822;7.966;2023-01-29T02:15:10;101498.34;;;-0.25;100.00
18022;BME280;9136;48.822;7.966;2023-01-29T02:17:59;101514.09;;;-0.18;100.00
18022;BME280;9136;48.822;7.966;2023-01-29T02:20:57;101514.94;;;-0.19;100.00
18022;BME280;9136;48.822;7.966;2023-01-29T02:24:12;101507.69;;;-0.29;100.00
18022;BME280;9136;48.822;7.966;2023-01-29T02:27:08;101527.94;;;-0.16;100.00
18022;BME280;9136;48.822;7.966;2023-01-29T02:30:02;101521.66;;;-0.24;100.00
18022;BME280;9136;48.822;7.966;2023-01-29T02:33:00;101514.00;;;-0.21;100.00
18022;BME280;9136;48.822;7.966;2023-01-29T02:35:58;101509.53;;;-0.26;100.00
18022;BME280;9136;48.822;7.966;2023-01-29T02:38:57;101515.81;;;-0.18;100.00
18022;BME280;9136;48.822;7.966;2023-01-29T02:41:53;101521.16;;;-0.12;100.00
18022;BME280;9136;48.822;7.966;2023-01-29T02:44:47;101507.94;;;-0.21;100.00
18022;BME280;9136;48.822;7.966;2023-01-29T02:47:44;101512.22;;;-0.22;100.00
18022;BME280;9136;48.822;7.966;2023-01-29T02:50:40;101480.78;;;-0.37;100.00
18022;BME280;9136;48.822;7.966;2023-01-29T02:53:36;101520.03;;;-0.20;100.00
18022;BME280;9136;48.822;7.966;2023-01-29T02:56:28;101505.13;;;-0.29;100.00
18022;BME280;9136;48.822;7.966;2023-01-29T02:59:23;101478.81;;;-0.44;100.00
18022;BME280;9136;48.822;7.966;2023-01-29T03:02:16;101489.34;;;-0.38;100.00
18022;BME280;9136;48.822;7.966;2023-01-29T03:05:11;101505.03;;;-0.32;100.00
18022;BME280;9136;48.822;7.966;2023-01-29T03:08:05;101500.91;;;-0.27;100.00
18022;BME280;9136;48.822;7.966;2023-01-29T03:10:57;101500.06;;;-0.26;100.00
18022;BME280;9136;48.822;7.966;2023-01-29T03:13:53;101466.63;;;-0.48;100.00
18022;BME280;9136;48.822;7.966;2023-01-29T03:16:46;101510.09;;;-0.35;100.00
18022;BME280;9136;48.822;7.966;2023-01-29T03:19:39;101486.66;;;-0.41;100.00
18022;BME280;9136;48.822;7.966;2023-01-29T03:22:30;101488.41;;;-0.40;100.00
18022;BME280;9136;48.822;7.966;2023-01-29T03:25:20;101492.94;;;-0.33;100.00
18022;BME280;9136;48.822;7.966;2023-01-29T03:28:28;101506.81;;;-0.30;100.00
18022;BME280;9136;48.822;7.966;2023-01-29T03:31:34;101502.34;;;-0.35;100.00
18022;BME280;9136;48.822;7.966;2023-01-29T03:34:45;101501.44;;;-0.37;100.00
18022;BME280;9136;48.822;7.966;2023-01-29T03:37:40;101514.44;;;-0.34;100.00
18022;BME280;9136;48.822;7.966;2023-01-29T03:40:35;101504.03;;;-0.37;100.00
18022;BME280;9136;48.822;7.966;2023-01-29T03:43:32;101489.94;;;-0.47;100.00
18022;BME280;9136;48.822;7.966;2023-01-29T03:46:26;101511.56;;;-0.43;100.00
18022;BME280;9136;48.822;7.966;2023-01-29T03:49:22;101507.31;;;-0.41;100.00
18022;BME280;9136;48.822;7.966;2023-01-29T03:52:18;101513.31;;;-0.42;100.00
18022;BME280;9136;48.822;7.966;2023-01-29T03:55:14;101494.81;;;-0.56;100.00
18022;BME280;9136;48.822;7.966;2023-01-29T03:58:08;101490.28;;;-0.62;100.00
18022;BME280;9136;48.822;7.966;2023-01-29T04:01:02;101502.69;;;-0.51;100.00
18022;BME280;9136;48.822;7.966;2023-01-29T04:03:56;101497.38;;;-0.56;100.00
18022;BME280;9136;48.822;7.966;2023-01-29T04:06:49;101491.25;;;-0.58;100.00
18022;BME280;9136;48.822;7.966;2023-01-29T04:09:42;101480.91;;;-0.60;100.00
18022;BME280;9136;48.822;7.966;2023-01-29T04:12:40;101482.50;;;-0.63;100.00
18022;BME280;9136;48.822;7.966;2023-01-29T04:15:31;101502.59;;;-0.54;100.00
18022;BME280;9136;48.822;7.966;2023-01-29T04:18:22;101491.88;;;-0.67;100.00
18022;BME280;9136;48.822;7.966;2023-01-29T04:21:11;101476.81;;;-0.78;100.00
18022;BME280;9136;48.822;7.966;2023-01-29T04:23:59;101500.47;;;-0.66;100.00
18022;BME280;9136;48.822;7.966;2023-01-29T04:26:59;101507.09;;;-0.74;100.00
18022;BME280;9136;48.822;7.966;2023-01-29T04:30:03;101482.41;;;-0.92;100.00
18022;BME280;9136;48.822;7.966;2023-01-29T04:33:02;101473.81;;;-0.92;100.00
18022;BME280;9136;48.822;7.966;2023-01-29T04:36:09;101491.13;;;-0.88;100.00
18022;BME280;9136;48.822;7.966;2023-01-29T04:39:07;101471.63;;;-1.05;100.00
18022;BME280;9136;48.822;7.966;2023-01-29T04:42:03;101469.94;;;-1.05;100.00
18022;BME280;9136;48.822;7.966;2023-01-29T04:44:59;101476.03;;;-1.03;100.00
18022;BME280;9136;48.822;7.966;2023-01-29T04:47:57;101486.59;;;-0.95;100.00
18022;BME280;9136;48.822;7.966;2023-01-29T04:50:54;101491.28;;;-0.83;100.00
18022;BME280;9136;48.822;7.966;2023-01-29T04:53:46;101473.84;;;-0.91;100.00
18022;BME280;9136;48.822;7.966;2023-01-29T04:56:43;101478.44;;;-0.82;100.00
18022;BME280;9136;48.822;7.966;2023-01-29T04:59:39;101489.69;;;-0.80;100.00
18022;BME280;9136;48.822;7.966;2023-01-29T05:02:32;101473.94;;;-0.88;100.00
18022;BME280;9136;48.822;7.966;2023-01-29T05:05:22;101490.50;;;-0.81;100.00
18022;BME280;9136;48.822;7.966;2023-01-29T05:08:13;101487.00;;;-0.83;100.00
18022;BME280;9136;48.822;7.966;2023-01-29T05:11:02;101480.81;;;-0.88;100.00
18022;BME280;9136;48.822;7.966;2023-01-29T05:13:51;101480.88;;;-0.87;100.00
18022;BME280;9136;48.822;7.966;2023-01-29T05:16:41;101498.31;;;-0.79;100.00
18022;BME280;9136;48.822;7.966;2023-01-29T05:19:31;101479.06;;;-0.89;100.00
18022;BME280;9136;48.822;7.966;2023-01-29T05:22:19;101488.97;;;-0.76;100.00
18022;BME280;9136;48.822;7.966;2023-01-29T05:25:20;101477.84;;;-0.75;100.00
18022;BME280;9136;48.822;7.966;2023-01-29T05:28:08;101478.09;;;-0.67;100.00
18022;BME280;9136;48.822;7.966;2023-01-29T05:31:01;101444.34;;;-0.73;100.00
18022;BME280;9136;48.822;7.966;2023-01-29T05:33:49;101450.94;;;-0.81;100.00
18022;BME280;9136;48.822;7.966;2023-01-29T05:36:38;101446.31;;;-0.92;100.00
18022;BME280;9136;48.822;7.966;2023-01-29T05:39:26;101476.91;;;-0.77;100.00
18022;BME280;9136;48.822;7.966;2023-01-29T05:42:14;101474.34;;;-0.77;100.00
18022;BME280;9136;48.822;7.966;2023-01-29T05:45:03;101471.66;;;-0.78;100.00
18022;BME280;9136;48.822;7.966;2023-01-29T05:47:54;101445.38;;;-0.94;100.00
18022;BME280;9136;48.822;7.966;2023-01-29T05:50:42;101458.53;;;-0.86;100.00
18022;BME280;9136;48.822;7.966;2023-01-29T05:53:32;101452.38;;;-0.90;100.00
18022;BME280;9136;48.822;7.966;2023-01-29T05:56:20;101451.72;;;-0.84;100.00
18022;BME280;9136;48.822;7.966;2023-01-29T05:59:08;101466.06;;;-0.92;100.00
18022;BME280;9136;48.822;7.966;2023-01-29T06:01:56;101492.44;;;-0.75;100.00
18022;BME280;9136;48.822;7.966;2023-01-29T06:04:44;101477.25;;;-0.92;100.00
18022;BME280;9136;48.822;7.966;2023-01-29T06:07:32;101486.41;;;-0.76;100.00
18022;BME280;9136;48.822;7.966;2023-01-29T06:10:22;101501.09;;;-0.73;100.00
18022;BME280;9136;48.822;7.966;2023-01-29T06:13:09;101511.72;;;-0.64;100.00
18022;BME280;9136;48.822;7.966;2023-01-29T06:15:57;101509.97;;;-0.65;100.00
18022;BME280;9136;48.822;7.966;2023-01-29T06:18:46;101497.66;;;-0.74;100.00
18022;BME280;9136;48.822;7.966;2023-01-29T06:21:34;101505.44;;;-0.72;100.00
18022;BME280;9136;48.822;7.966;2023-01-29T06:24:21;101501.19;;;-0.70;100.00
18022;BME280;9136;48.822;7.966;2023-01-29T06:27:11;101512.34;;;-0.71;100.00
18022;BME280;9136;48.822;7.966;2023-01-29T06:29:58;101525.47;;;-0.65;100.00
18022;BME280;9136;48.822;7.966;2023-01-29T06:32:46;101515.28;;;-0.61;100.00
18022;BME280;9136;48.822;7.966;2023-01-29T06:35:34;101502.19;;;-0.67;100.00
18022;BME280;9136;48.822;7.966;2023-01-29T06:38:22;101515.88;;;-0.68;100.00
18022;BME280;9136;48.822;7.966;2023-01-29T06:41:12;101490.69;;;-0.76;100.00
18022;BME280;9136;48.822;7.966;2023-01-29T06:44:03;101479.22;;;-0.84;100.00
18022;BME280;9136;48.822;7.966;2023-01-29T06:46:51;101489.13;;;-0.71;100.00
18022;BME280;9136;48.822;7.966;2023-01-29T06:49:38;101499.53;;;-0.68;100.00
18022;BME280;9136;48.822;7.966;2023-01-29T06:52:26;101465.50;;;-0.83;100.00
18022;BME280;9136;48.822;7.966;2023-01-29T06:55:15;101495.00;;;-0.75;100.00
18022;BME280;9136;48.822;7.966;2023-01-29T06:58:06;101488.03;;;-0.78;100.00
18022;BME280;9136;48.822;7.966;2023-01-29T07:01:01;101476.44;;;-0.91;100.00
18022;BME280;9136;48.822;7.966;2023-01-29T07:03:49;101477.13;;;-0.96;100.00
18022;BME280;9136;48.822;7.966;2023-01-29T07:06:37;101484.13;;;-0.92;100.00
18022;BME280;9136;48.822;7.966;2023-01-29T07:09:25;101502.22;;;-0.91;100.00
18022;BME280;9136;48.822;7.966;2023-01-29T07:12:13;101502.97;;;-0.95;100.00
18022;BME280;9136;48.822;7.966;2023-01-29T07:15:01;101491.69;;;-0.97;100.00
18022;BME280;9136;48.822;7.966;2023-01-29T07:17:58;101493.59;;;-0.91;100.00
18022;BME280;9136;48.822;7.966;2023-01-29T07:20:46;101510.59;;;-0.72;100.00
18022;BME280;9136;48.822;7.966;2023-01-29T07:23:34;101517.50;;;-0.71;100.00
18022;BME280;9136;48.822;7.966;2023-01-29T07:26:23;101509.84;;;-0.68;100.00
18022;BME280;9136;48.822;7.966;2023-01-29T07:29:10;101491.56;;;-0.76;100.00
18022;BME280;9136;48.822;7.966;2023-01-29T07:31:58;101518.63;;;-0.63;100.00
18022;BME280;9136;48.822;7.966;2023-01-29T07:34:48;101515.13;;;-0.65;100.00
18022;BME280;9136;48.822;7.966;2023-01-29T07:37:36;101502.50;;;-0.57;100.00
18022;BME280;9136;48.822;7.966;2023-01-29T07:40:23;101519.09;;;-0.49;100.00
18022;BME280;9136;48.822;7.966;2023-01-29T07:43:11;101498.34;;;-0.52;100.00
18022;BME280;9136;48.822;7.966;2023-01-29T07:46:01;101515.88;;;-0.42;100.00
18022;BME280;9136;48.822;7.966;2023-01-29T07:48:49;101504.91;;;-0.37;100.00
18022;BME280;9136;48.822;7.966;2023-01-29T07:51:38;101498.34;;;-0.52;100.00
18022;BME280;9136;48.822;7.966;2023-01-29T07:54:26;101528.25;;;-0.32;100.00
18022;BME280;9136;48.822;7.966;2023-01-29T07:57:14;101541.38;;;-0.26;100.00
18022;BME280;9136;48.822;7.966;2023-01-29T08:00:02;101548.38;;;-0.22;100.00
18022;BME280;9136;48.822;7.966;2023-01-29T08:02:50;101539.69;;;-0.25;100.00
18022;BME280;9136;48.822;7.966;2023-01-29T08:05:38;101545.75;;;-0.23;100.00
18022;BME280;9136;48.822;7.966;2023-01-29T08:08:28;101556.25;;;-0.19;100.00
18022;BME280;9136;48.822;7.966;2023-01-29T08:11:15;101570.91;;;-0.18;100.00
18022;BME280;9136;48.822;7.966;2023-01-29T08:14:03;101550.94;;;-0.23;100.00
18022;BME280;9136;48.822;7.966;2023-01-29T08:16:51;101576.44;;;-0.07;100.00
18022;BME280;9136;48.822;7.966;2023-01-29T08:19:41;101558.00;;;-0.18;100.00
18022;BME280;9136;48.822;7.966;2023-01-29T08:22:30;101561.56;;;-0.14;100.00
18022;BME280;9136;48.822;7.966;2023-01-29T08:25:20;101558.22;;;-0.10;100.00
18022;BME280;9136;48.822;7.966;2023-01-29T08:28:08;101578.22;;;-0.05;100.00
18022;BME280;9136;48.822;7.966;2023-01-29T08:30:57;101567.75;;;-0.09;100.00
18022;BME280;9136;48.822;7.966;2023-01-29T08:33:45;101573.31;;;0.03;100.00
18022;BME280;9136;48.822;7.966;2023-01-29T08:36:35;101577.06;;;0.13;100.00
18022;BME280;9136;48.822;7.966;2023-01-29T08:39:22;101576.66;;;0.27;100.00
18022;BME280;9136;48.822;7.966;2023-01-29T08:42:12;101558.84;;;0.37;100.00
18022;BME280;9136;48.822;7.966;2023-01-29T08:45:00;101575.66;;;0.51;100.00
18022;BME280;9136;48.822;7.966;2023-01-29T08:47:49;101570.31;;;0.46;100.00
18022;BME280;9136;48.822;7.966;2023-01-29T08:50:36;101556.41;;;0.41;100.00
18022;BME280;9136;48.822;7.966;2023-01-29T08:53:25;101560.84;;;0.47;100.00
18022;BME280;9136;48.822;7.966;2023-01-29T08:56:12;101556.22;;;0.65;100.00
18022;BME280;9136;48.822;7.966;2023-01-29T08:59:02;101568.81;;;0.83;100.00
18022;BME280;9136;48.822;7.966;2023-01-29T09:01:50;101550.59;;;0.78;100.00
18022;BME280;9136;48.822;7.966;2023-01-29T09:04:38;101567.91;;;0.81;100.00
18022;BME280;9136;48.822;7.966;2023-01-29T09:07:27;101566.84;;;0.74;100.00
18022;BME280;9136;48.822;7.966;2023-01-29T09:10:17;101551.22;;;0.70;100.00
18022;BME280;9136;48.822;7.966;2023-01-29T09:13:05;101553.78;;;0.70;100.00
18022;BME280;9136;48.822;7.966;2023-01-29T09:15:57;101530.06;;;0.54;100.00
18022;BME280;9136;48.822;7.966;2023-01-29T09:18:45;101545.91;;;0.67;100.00
18022;BME280;9136;48.822;7.966;2023-01-29T09:21:33;101548.25;;;0.57;100.00
18022;BME280;9136;48.822;7.966;2023-01-29T09:24:21;101558.72;;;0.62;100.00
18022;BME280;9136;48.822;7.966;2023-01-29T09:27:09;101582.06;;;0.64;100.00
18022;BME280;9136;48.822;7.966;2023-01-29T09:29:57;101590.72;;;0.66;100.00
18022;BME280;9136;48.822;7.966;2023-01-29T09:32:46;101583.69;;;0.90;100.00
18022;BME280;9136;48.822;7.966;2023-01-29T09:35:34;101583.00;;;1.27;100.00
18022;BME280;9136;48.822;7.966;2023-01-29T09:38:21;101573.81;;;1.38;100.00
18022;BME280;9136;48.822;7.966;2023-01-29T09:41:21;101563.16;;;1.28;100.00
18022;BME280;9136;48.822;7.966;2023-01-29T09:44:18;101529.13;;;1.14;100.00
18022;BME280;9136;48.822;7.966;2023-01-29T09:47:12;101518.72;;;1.11;100.00
18022;BME280;9136;48.822;7.966;2023-01-29T09:50:05;101535.66;;;1.33;100.00
18022;BME280;9136;48.822;7.966;2023-01-29T09:52:58;101533.41;;;1.45;100.00
18022;BME280;9136;48.822;7.966;2023-01-29T09:55:50;101517.34;;;1.58;100.00
18022;BME280;9136;48.822;7.966;2023-01-29T09:58:42;101527.34;;;1.79;100.00
18022;BME280;9136;48.822;7.966;2023-01-29T10:01:33;101511.78;;;1.79;100.00
18022;BME280;9136;48.822;7.966;2023-01-29T10:04:43;101515.53;;;1.92;100.00
18022;BME280;9136;48.822;7.966;2023-01-29T10:08:08;101509.22;;;1.81;100.00
18022;BME280;9136;48.822;7.966;2023-01-29T10:11:09;101505.47;;;2.04;100.00
18022;BME280;9136;48.822;7.966;2023-01-29T10:14:12;101518.25;;;2.36;100.00
18022;BME280;9136;48.822;7.966;2023-01-29T10:17:12;101517.84;;;2.56;100.00
18022;BME280;9136;48.822;7.966;2023-01-29T10:20:18;101529.19;;;2.62;100.00
18022;BME280;9136;48.822;7.966;2023-01-29T10:23:25;101522.47;;;2.30;100.00
18022;BME280;9136;48.822;7.966;2023-01-29T10:26:13;101526.78;;;2.32;100.00
18022;BME280;9136;48.822;7.966;2023-01-29T10:29:04;101520.84;;;2.36;100.00
18022;BME280;9136;48.822;7.966;2023-01-29T10:31:56;101505.75;;;2.18;100.00
18022;BME280;9136;48.822;7.966;2023-01-29T10:34:53;101524.75;;;2.56;100.00
18022;BME280;9136;48.822;7.966;2023-01-29T10:37:43;101520.47;;;2.59;100.00
18022;BME280;9136;48.822;7.966;2023-01-29T10:40:38;101524.50;;;2.87;100.00
18022;BME280;9136;48.822;7.966;2023-01-29T10:43:35;101515.28;;;3.02;100.00
18022;BME280;9136;48.822;7.966;2023-01-29T10:46:34;101520.19;;;2.88;100.00
18022;BME280;9136;48.822;7.966;2023-01-29T10:49:40;101512.72;;;3.03;100.00
18022;BME280;9136;48.822;7.966;2023-01-29T10:52:45;101536.97;;;3.52;98.94
18022;BME280;9136;48.822;7.966;2023-01-29T10:55:48;101549.47;;;3.76;89.59
18022;BME280;9136;48.822;7.966;2023-01-29T10:58:42;101544.72;;;4.03;87.69
18022;BME280;9136;48.822;7.966;2023-01-29T11:01:32;101542.97;;;4.04;78.01
18022;BME280;9136;48.822;7.966;2023-01-29T11:04:20;101544.56;;;3.93;75.38
18022;BME280;9136;48.822;7.966;2023-01-29T11:07:08;101513.25;;;4.47;73.70
18022;BME280;9136;48.822;7.966;2023-01-29T11:10:00;101513.47;;;5.46;64.14
18022;BME280;9136;48.822;7.966;2023-01-29T11:12:52;101506.25;;;6.27;63.75
18022;BME280;9136;48.822;7.966;2023-01-29T11:15:40;101510.75;;;6.51;57.70
18022;BME280;9136;48.822;7.966;2023-01-29T11:18:47;101500.03;;;6.03;57.54
18022;BME280;9136;48.822;7.966;2023-01-29T11:21:50;101491.03;;;5.63;62.85
18022;BME280;9136;48.822;7.966;2023-01-29T11:24:38;101485.28;;;5.04;72.61
18022;BME280;9136;48.822;7.966;2023-01-29T11:27:26;101475.22;;;5.42;64.96
18022;BME280;9136;48.822;7.966;2023-01-29T11:30:21;101471.91;;;5.66;65.83
18022;BME280;9136;48.822;7.966;2023-01-29T11:33:17;101481.78;;;6.02;64.26
18022;BME280;9136;48.822;7.966;2023-01-29T11:36:19;101480.31;;;5.30;67.45
18022;BME280;9136;48.822;7.966;2023-01-29T11:39:17;101475.84;;;5.15;70.07
18022;BME280;9136;48.822;7.966;2023-01-29T11:42:18;101475.78;;;5.09;69.17
18022;BME280;9136;48.822;7.966;2023-01-29T11:45:25;101456.72;;;5.13;71.92
18022;BME280;9136;48.822;7.966;2023-01-29T11:48:17;101471.41;;;6.11;65.11
18022;BME280;9136;48.822;7.966;2023-01-29T11:51:06;101451.56;;;6.47;58.23
18022;BME280;9136;48.822;7.966;2023-01-29T11:53:57;101456.75;;;6.41;58.34
18022;BME280;9136;48.822;7.966;2023-01-29T11:56:46;101453.75;;;5.78;59.86
18022;BME280;9136;48.822;7.966;2023-01-29T11:59:41;101447.34;;;6.96;58.35
18022;BME280;9136;48.822;7.966;2023-01-29T12:02:37;101441.75;;;8.78;51.17
18022;BME280;9136;48.822;7.966;2023-01-29T12:05:28;101435.13;;;9.49;46.10
18022;BME280;9136;48.822;7.966;2023-01-29T12:08:17;101417.63;;;8.12;46.58
18022;BME280;9136;48.822;7.966;2023-01-29T12:11:10;101412.16;;;9.75;42.61
18022;BME280;9136;48.822;7.966;2023-01-29T12:14:00;101406.25;;;10.32;42.86
18022;BME280;9136;48.822;7.966;2023-01-29T12:16:51;101411.53;;;9.49;43.19
18022;BME280;9136;48.822;7.966;2023-01-29T12:19:46;101407.84;;;9.68;43.36
18022;BME280;9136;48.822;7.966;2023-01-29T12:22:40;101390.94;;;9.02;44.74
18022;BME280;9136;48.822;7.966;2023-01-29T12:25:43;101397.16;;;8.90;44.62
18022;BME280;9136;48.822;7.966;2023-01-29T12:28:41;101396.91;;;10.08;42.58
18022;BME280;9136;48.822;7.966;2023-01-29T12:31:37;101386.16;;;9.50;43.34
18022;BME280;9136;48.822;7.966;2023-01-29T12:34:36;101385.63;;;10.00;42.80
18022;BME280;9136;48.822;7.966;2023-01-29T12:37:37;101364.38;;;9.41;44.60
18022;BME280;9136;48.822;7.966;2023-01-29T12:40:30;101377.84;;;9.92;44.95
18022;BME280;9136;48.822;7.966;2023-01-29T12:43:23;101359.09;;;10.26;42.40
18022;BME280;9136;48.822;7.966;2023-01-29T12:46:19;101368.09;;;10.70;42.19
18022;BME280;9136;48.822;7.966;2023-01-29T12:49:13;101352.72;;;8.75;43.46
18022;BME280;9136;48.822;7.966;2023-01-29T12:52:08;101352.09;;;8.25;45.45
18022;BME280;9136;48.822;7.966;2023-01-29T12:55:02;101354.19;;;10.63;41.47
18022;BME280;9136;48.822;7.966;2023-01-29T12:57:55;101338.50;;;11.12;40.81
18022;BME280;9136;48.822;7.966;2023-01-29T13:00:46;101329.09;;;10.41;41.62
18022;BME280;9136;48.822;7.966;2023-01-29T13:03:46;101330.81;;;9.74;42.28
18022;BME280;9136;48.822;7.966;2023-01-29T13:06:40;101329.50;;;8.08;46.41
18022;BME280;9136;48.822;7.966;2023-01-29T13:09:32;101317.59;;;6.97;48.53
18022;BME280;9136;48.822;7.966;2023-01-29T13:12:23;101322.81;;;6.89;51.15
18022;BME280;9136;48.822;7.966;2023-01-29T13:15:19;101318.25;;;5.89;52.99
18022;BME280;9136;48.822;7.966;2023-01-29T13:18:22;101313.25;;;4.84;58.21
18022;BME280;9136;48.822;7.966;2023-01-29T13:21:18;101328.25;;;5.18;62.75
18022;BME280;9136;48.822;7.966;2023-01-29T13:24:11;101312.50;;;5.02;59.68
18022;BME280;9136;48.822;7.966;2023-01-29T13:27:01;101313.88;;;4.60;66.13
18022;BME280;9136;48.822;7.966;2023-01-29T13:29:52;101312.69;;;4.26;62.04
18022;BME280;9136;48.822;7.966;2023-01-29T13:32:41;101316.97;;;4.19;62.78
18022;BME280;9136;48.822;7.966;2023-01-29T13:35:29;101324.88;;;4.30;64.89
18022;BME280;9136;48.822;7.966;2023-01-29T13:38:24;101308.78;;;3.87;65.63
18022;BME280;9136;48.822;7.966;2023-01-29T13:41:13;101307.88;;;3.85;68.12
18022;BME280;9136;48.822;7.966;2023-01-29T13:44:03;101318.16;;;3.76;65.36
18022;BME280;9136;48.822;7.966;2023-01-29T13:46:56;101303.72;;;3.96;67.13
18022;BME280;9136;48.822;7.966;2023-01-29T13:49:46;101303.94;;;4.16;67.21
18022;BME280;9136;48.822;7.966;2023-01-29T13:52:43;101307.09;;;3.89;66.36
18022;BME280;9136;48.822;7.966;2023-01-29T13:55:33;101310.69;;;4.03;64.99
18022;BME280;9136;48.822;7.966;2023-01-29T13:58:52;101306.44;;;4.10;65.87
18022;BME280;9136;48.822;7.966;2023-01-29T14:02:16;101311.22;;;3.75;65.77
18022;BME280;9136;48.822;7.966;2023-01-29T14:08:37;101306.09;;;3.80;70.41
18022;BME280;9136;48.822;7.966;2023-01-29T14:11:34;101298.63;;;4.06;66.71
18022;BME280;9136;48.822;7.966;2023-01-29T14:14:48;101314.13;;;3.98;68.56
18022;BME280;9136;48.822;7.966;2023-01-29T14:17:38;101306.78;;;3.66;72.69
18022;BME280;9136;48.822;7.966;2023-01-29T14:20:36;101318.97;;;3.70;72.83
18022;BME280;9136;48.822;7.966;2023-01-29T14:23:35;101308.63;;;3.75;71.17
18022;BME280;9136;48.822;7.966;2023-01-29T14:26:29;101302.88;;;3.34;72.41
18022;BME280;9136;48.822;7.966;2023-01-29T14:29:22;101304.28;;;3.09;76.69
18022;BME280;9136;48.822;7.966;2023-01-29T14:32:16;101302.50;;;3.08;77.73
18022;BME280;9136;48.822;7.966;2023-01-29T14:35:18;101301.25;;;2.83;80.54
18022;BME280;9136;48.822;7.966;2023-01-29T14:38:07;101299.97;;;3.12;81.40
18022;BME280;9136;48.822;7.966;2023-01-29T14:41:04;101302.78;;;3.28;77.98
18022;BME280;9136;48.822;7.966;2023-01-29T14:47:19;101305.28;;;3.20;77.08
18022;BME280;9136;48.822;7.966;2023-01-29T14:53:43;101282.28;;;2.88;80.71
18022;BME280;9136;48.822;7.966;2023-01-29T14:56:34;101306.91;;;3.13;81.10
18022;BME280;9136;48.822;7.966;2023-01-29T14:59:25;101290.59;;;3.22;82.62
18022;BME280;9136;48.822;7.966;2023-01-29T15:02:18;101293.78;;;3.03;83.86
18022;BME280;9136;48.822;7.966;2023-01-29T15:05:10;101276.31;;;2.91;81.97
18022;BME280;9136;48.822;7.966;2023-01-29T15:08:02;101274.38;;;2.79;82.69
18022;BME280;9136;48.822;7.966;2023-01-29T15:10:55;101270.94;;;2.80;83.27
18022;BME280;9136;48.822;7.966;2023-01-29T15:14:05;101274.50;;;2.88;84.91
18022;BME280;9136;48.822;7.966;2023-01-29T15:17:04;101308.19;;;2.84;87.95
18022;BME280;9136;48.822;7.966;2023-01-29T15:19:52;101288.13;;;2.72;87.91
18022;BME280;9136;48.822;7.966;2023-01-29T15:22:42;101296.41;;;2.51;90.13